createdAt,value
2022-11-02T00:01:18.769Z,65.27
2022-11-02T00:03:21.009Z,65.19
2022-11-02T00:05:25.157Z,64.78
2022-11-02T00:07:27.259Z,64.74
2022-11-02T00:09:29.149Z,65.08
2022-11-02T00:11:31.121Z,65.11
2022-11-02T00:13:33.488Z,64.52
2022-11-02T00:15:37.675Z,64.88
2022-11-02T00:17:49.128Z,64.48
2022-11-02T00:19:51.289Z,64.58
2022-11-02T00:21:53.770Z,64.87
2022-11-02T00:23:57.928Z,64.43
2022-11-02T00:26:02.832Z,64.40
2022-11-02T00:28:05.331Z,64.31
2022-11-02T00:30:08.417Z,63.42
2022-11-02T00:32:10.309Z,63.88
2022-11-02T00:34:12.498Z,63.39
2022-11-02T00:36:14.462Z,63.38
2022-11-02T00:38:16.543Z,63.28
2022-11-02T00:40:18.638Z,63.49
2022-11-02T00:42:20.737Z,62.81
2022-11-02T00:44:22.756Z,63.16
2022-11-02T00:46:24.810Z,63.14
2022-11-02T00:48:26.989Z,63.01
2022-11-02T00:50:28.861Z,63.16
2022-11-02T00:52:31.687Z,63.00
2022-11-02T00:54:33.760Z,63.02
2022-11-02T00:56:35.694Z,62.96
2022-11-02T00:58:37.680Z,62.23
2022-11-02T01:00:39.674Z,62.26
2022-11-02T01:02:41.925Z,62.25
2022-11-02T01:04:44.338Z,62.61
2022-11-02T01:06:47.150Z,62.95
2022-11-02T01:08:49.270Z,62.71
2022-11-02T01:10:51.798Z,62.40
2022-11-02T01:12:53.842Z,62.54
2022-11-02T01:14:56.017Z,62.33
2022-11-02T01:16:58.215Z,61.87
2022-11-02T01:19:00.217Z,61.99
2022-11-02T01:21:02.210Z,61.96
2022-11-02T01:23:04.183Z,61.82
2022-11-02T01:25:06.421Z,62.17
2022-11-02T01:27:08.530Z,62.33
2022-11-02T01:29:10.499Z,62.30
2022-11-02T01:31:12.459Z,61.82
2022-11-02T01:33:14.429Z,62.27
2022-11-02T01:35:16.990Z,61.94
2022-11-02T01:37:18.911Z,61.99
2022-11-02T01:39:21.038Z,62.47
2022-11-02T01:41:23.060Z,62.18
2022-11-02T01:43:25.638Z,61.93
2022-11-02T01:45:28.328Z,62.45
2022-11-02T01:47:36.307Z,62.61
2022-11-02T01:49:43.145Z,62.58
2022-11-02T01:51:55.581Z,63.11
2022-11-02T01:54:03.061Z,63.01
2022-11-02T01:56:06.582Z,63.33
2022-11-02T01:58:12.675Z,63.38
2022-11-02T02:00:16.836Z,63.22
2022-11-02T02:02:23.292Z,63.33
2022-11-02T02:04:27.289Z,63.46
2022-11-02T02:06:30.279Z,63.55
2022-11-02T02:08:33.469Z,63.56
2022-11-02T02:10:36.508Z,63.53
2022-11-02T02:12:41.583Z,63.65
2022-11-02T02:14:44.038Z,63.75
2022-11-02T02:17:03.092Z,63.66
2022-11-02T02:19:18.639Z,63.45
2022-11-02T02:21:38.547Z,64.09
2022-11-02T02:24:00.537Z,64.12
2022-11-02T02:26:12.689Z,64.29
2022-11-02T02:28:25.991Z,64.62
2022-11-02T02:30:31.397Z,64.36
2022-11-02T02:32:43.546Z,64.36
2022-11-02T02:34:52.058Z,64.44
2022-11-02T02:37:02.066Z,65.24
2022-11-02T02:39:07.076Z,64.98
2022-11-02T02:41:18.797Z,64.82
2022-11-02T02:43:34.671Z,64.97
2022-11-02T02:45:42.589Z,64.88
2022-11-02T02:47:54.667Z,64.98
2022-11-02T02:50:03.919Z,65.08
2022-11-02T02:52:06.743Z,64.90
2022-11-02T02:54:13.983Z,65.38
2022-11-02T02:56:20.050Z,65.36
2022-11-02T02:58:26.446Z,64.96
2022-11-02T03:00:30.642Z,65.21
2022-11-02T03:02:36.564Z,64.99
2022-11-02T03:04:38.659Z,65.38
2022-11-02T03:06:44.490Z,65.04
2022-11-02T03:08:55.991Z,65.18
2022-11-02T03:11:12.435Z,65.57
2022-11-02T03:13:33.198Z,65.29
2022-11-02T03:15:41.140Z,65.58
2022-11-02T03:17:51.237Z,65.72
2022-11-02T03:20:01.140Z,65.52
2022-11-02T03:22:16.759Z,65.55
2022-11-02T03:24:27.691Z,65.77
2022-11-02T03:26:42.530Z,65.43
2022-11-02T03:28:57.621Z,65.42
2022-11-02T03:31:15.667Z,65.40
2022-11-02T03:33:24.357Z,64.96
2022-11-02T03:35:39.348Z,65.29
2022-11-02T03:37:48.468Z,64.78
2022-11-02T03:40:07.182Z,65.02
2022-11-02T03:42:13.941Z,64.90
2022-11-02T03:44:21.178Z,64.67
2022-11-02T03:46:24.189Z,65.62
2022-11-02T03:48:32.189Z,65.07
2022-11-02T03:50:35.540Z,66.03
2022-11-02T03:52:40.337Z,65.57
2022-11-02T03:54:54.588Z,65.15
2022-11-02T03:59:06.818Z,65.45
2022-11-02T04:01:10.350Z,65.21
2022-11-02T04:03:13.518Z,65.57
2022-11-02T04:05:16.224Z,65.14
2022-11-02T04:07:24.519Z,65.87
2022-11-02T04:09:26.455Z,65.29
2022-11-02T04:11:38.225Z,64.88
2022-11-02T04:13:49.434Z,65.10
2022-11-02T04:15:51.864Z,65.26
2022-11-02T04:18:03.572Z,64.96
2022-11-02T04:20:06.247Z,65.06
2022-11-02T04:22:17.259Z,65.36
2022-11-02T04:24:28.260Z,65.42
2022-11-02T04:26:30.680Z,65.01
2022-11-02T04:28:32.998Z,64.94
2022-11-02T04:30:34.795Z,64.81
2022-11-02T04:32:48.376Z,64.85
2022-11-02T04:34:50.136Z,64.79
2022-11-02T04:36:51.865Z,64.23
2022-11-02T04:38:53.620Z,64.33
2022-11-02T04:41:15.431Z,64.04
2022-11-02T04:43:17.246Z,64.31
2022-11-02T04:45:19.080Z,64.11
2022-11-02T04:47:20.871Z,64.06
2022-11-02T04:49:22.673Z,64.42
2022-11-02T04:51:26.016Z,64.48
2022-11-02T04:53:27.769Z,63.73
2022-11-02T04:55:30.035Z,63.62
2022-11-02T04:57:31.901Z,63.60
2022-11-02T04:59:33.760Z,63.99
2022-11-02T05:01:35.726Z,63.91
2022-11-02T05:03:37.634Z,63.35
2022-11-02T05:05:39.564Z,63.25
2022-11-02T05:07:41.735Z,63.65
2022-11-02T05:09:43.574Z,63.17
2022-11-02T05:11:45.369Z,63.90
2022-11-02T05:13:47.314Z,63.87
2022-11-02T05:15:49.206Z,63.98
2022-11-02T05:17:51.058Z,64.07
2022-11-02T05:19:52.945Z,63.79
2022-11-02T05:21:54.814Z,63.76
2022-11-02T05:23:56.660Z,63.22
2022-11-02T05:26:01.528Z,63.09
2022-11-02T05:28:03.465Z,64.00
2022-11-02T05:30:06.778Z,63.43
2022-11-02T05:32:08.635Z,63.16
2022-11-02T05:34:10.478Z,63.61
2022-11-02T05:36:12.884Z,63.57
2022-11-02T05:38:14.803Z,63.22
2022-11-02T05:40:16.682Z,63.28
2022-11-02T05:42:18.479Z,63.05
2022-11-02T05:44:20.224Z,63.22
2022-11-02T05:46:22.013Z,63.73
2022-11-02T05:48:25.186Z,62.93
2022-11-02T05:50:27.674Z,62.66
2022-11-02T05:52:29.453Z,63.61
2022-11-02T05:54:31.305Z,63.33
2022-11-02T05:56:33.055Z,63.20
2022-11-02T05:58:34.919Z,63.17
2022-11-02T06:00:36.888Z,63.41
2022-11-02T06:02:38.650Z,63.32
2022-11-02T06:04:40.487Z,63.32
2022-11-02T06:06:43.049Z,62.96
2022-11-02T06:08:44.824Z,63.17
2022-11-02T06:10:48.889Z,62.99
2022-11-02T06:13:01.926Z,63.45
2022-11-02T06:15:04.399Z,63.47
2022-11-02T06:17:06.305Z,63.48
2022-11-02T06:19:08.177Z,62.95
2022-11-02T06:21:10.445Z,62.45
2022-11-02T06:23:14.679Z,63.15
2022-11-02T06:25:17.019Z,62.67
2022-11-02T06:27:19.011Z,63.26
2022-11-02T06:29:20.830Z,62.87
2022-11-02T06:31:22.771Z,62.67
2022-11-02T06:33:24.740Z,63.48
2022-11-02T06:35:26.629Z,63.36
2022-11-02T06:37:28.554Z,63.12
2022-11-02T06:39:30.386Z,63.29
2022-11-02T06:41:32.181Z,63.22
2022-11-02T06:43:34.540Z,63.21
2022-11-02T06:45:36.340Z,62.54
2022-11-02T06:47:38.811Z,63.28
2022-11-02T06:49:40.647Z,63.18
2022-11-02T06:51:42.560Z,62.98
2022-11-02T06:53:44.354Z,62.73
2022-11-02T06:55:52.826Z,62.55
2022-11-02T06:57:55.646Z,62.56
2022-11-02T07:00:04.038Z,62.47
2022-11-02T07:02:06.410Z,62.81
2022-11-02T07:04:08.781Z,62.97
2022-11-02T07:06:14.093Z,62.93
2022-11-02T07:08:16.345Z,63.34
2022-11-02T07:10:18.539Z,63.10
2022-11-02T07:12:22.990Z,63.21
2022-11-02T07:14:25.224Z,63.22
2022-11-02T07:16:27.224Z,63.09
2022-11-02T07:18:29.180Z,63.05
2022-11-02T07:20:31.074Z,62.92
2022-11-02T07:22:32.903Z,62.71
2022-11-02T07:24:34.806Z,62.43
2022-11-02T07:26:36.854Z,62.80
2022-11-02T07:28:39.140Z,62.22
2022-11-02T07:30:41.415Z,62.15
2022-11-02T07:32:45.730Z,62.05
2022-11-02T07:34:47.895Z,62.41
2022-11-02T07:36:49.896Z,62.22
2022-11-02T07:38:51.740Z,62.16
2022-11-02T07:40:53.653Z,61.60
2022-11-02T07:42:56.210Z,61.78
2022-11-02T07:44:58.410Z,61.84
2022-11-02T07:47:01.684Z,61.88
2022-11-02T07:49:03.575Z,61.56
2022-11-02T07:51:08.189Z,62.06
2022-11-02T07:53:11.020Z,61.83
2022-11-02T07:55:14.942Z,61.30
2022-11-02T07:57:17.340Z,62.00
2022-11-02T07:59:19.574Z,61.67
2022-11-02T08:01:21.876Z,61.94
2022-11-02T08:03:24.507Z,61.89
2022-11-02T08:05:29.496Z,61.92
2022-11-02T08:07:31.891Z,62.09
2022-11-02T08:09:34.541Z,61.81
2022-11-02T08:11:36.852Z,62.29
2022-11-02T08:13:39.290Z,62.36
2022-11-02T08:15:42.061Z,61.76
2022-11-02T08:17:44.642Z,62.24
2022-11-02T08:19:47.109Z,61.85
2022-11-02T08:21:49.133Z,62.23
2022-11-02T08:23:55.981Z,62.53
2022-11-02T08:26:00.961Z,62.17
2022-11-02T08:28:04.777Z,62.49
2022-11-02T08:30:08.567Z,62.81
2022-11-02T08:32:11.097Z,62.46
2022-11-02T08:34:13.431Z,62.50
2022-11-02T08:36:15.825Z,62.57
2022-11-02T08:38:18.697Z,63.18
2022-11-02T08:40:21.495Z,63.14
2022-11-02T08:42:23.815Z,62.97
2022-11-02T08:44:26.056Z,63.20
2022-11-02T08:46:28.386Z,63.40
2022-11-02T08:48:31.031Z,62.90
2022-11-02T08:50:34.141Z,63.25
2022-11-02T08:52:40.543Z,62.76
2022-11-02T08:54:43.506Z,62.74
2022-11-02T08:56:46.146Z,63.01
2022-11-02T08:58:48.381Z,62.92
2022-11-02T09:00:53.985Z,62.79
2022-11-02T09:03:00.055Z,62.51
2022-11-02T09:05:02.619Z,62.92
2022-11-02T09:07:04.868Z,62.66
2022-11-02T09:09:07.267Z,62.30
2022-11-02T09:11:09.471Z,62.09
2022-11-02T09:13:15.095Z,62.50
2022-11-02T09:15:17.497Z,62.08
2022-11-02T09:17:19.896Z,62.10
2022-11-02T09:19:22.512Z,61.83
2022-11-02T09:21:24.831Z,61.49
2022-11-02T09:23:27.305Z,61.61
2022-11-02T09:25:30.100Z,61.70
2022-11-02T09:27:32.386Z,61.51
2022-11-02T09:29:34.456Z,61.23
2022-11-02T09:31:36.856Z,61.40
2022-11-02T09:33:39.421Z,61.33
2022-11-02T09:35:44.458Z,61.16
2022-11-02T09:37:50.060Z,60.92
2022-11-02T09:39:53.517Z,61.05
2022-11-02T09:42:15.946Z,60.73
2022-11-02T09:44:38.150Z,60.17
2022-11-02T09:46:43.582Z,60.14
2022-11-02T09:48:58.680Z,59.97
2022-11-02T09:51:08.295Z,60.02
2022-11-02T09:53:18.056Z,59.51
2022-11-02T09:55:27.847Z,59.40
2022-11-02T09:57:33.343Z,59.60
2022-11-02T09:59:35.897Z,60.24
2022-11-02T10:01:52.069Z,59.67
2022-11-02T10:04:13.660Z,59.50
2022-11-02T10:06:21.653Z,59.29
2022-11-02T10:08:40.299Z,59.34
2022-11-02T10:11:14.219Z,58.96
2022-11-02T10:13:45.490Z,58.96
2022-11-02T10:15:56.778Z,59.00
2022-11-02T10:18:00.885Z,58.97
2022-11-02T10:20:12.111Z,58.90
2022-11-02T10:22:17.196Z,58.65
2022-11-02T10:24:32.072Z,58.43
2022-11-02T10:26:36.481Z,58.67
2022-11-02T10:28:42.099Z,58.29
2022-11-02T10:30:45.700Z,58.41
2022-11-02T10:32:53.337Z,58.10
2022-11-02T10:34:59.229Z,57.71
2022-11-02T10:37:19.902Z,58.40
2022-11-02T10:39:40.916Z,58.28
2022-11-02T10:41:54.541Z,58.55
2022-11-02T10:44:19.913Z,58.58
2022-11-02T10:46:41.778Z,58.84
2022-11-02T10:48:59.708Z,58.73
2022-11-02T10:51:10.716Z,58.75
2022-11-02T10:55:55.848Z,59.46
2022-11-02T10:58:04.461Z,59.38
2022-11-02T11:00:24.560Z,59.66
2022-11-02T11:02:26.871Z,59.72
2022-11-02T11:04:31.176Z,60.03
2022-11-02T11:06:44.060Z,60.33
2022-11-02T11:08:50.215Z,59.81
2022-11-02T11:10:52.860Z,59.94
2022-11-02T11:12:56.843Z,59.69
2022-11-02T11:19:53.274Z,58.49
2022-11-02T11:21:56.699Z,58.44
2022-11-02T11:24:19.065Z,57.53
2022-11-02T11:26:31.046Z,58.30
2022-11-02T11:28:37.433Z,58.70
2022-11-02T11:30:58.813Z,59.12
2022-11-02T11:33:04.315Z,58.75
2022-11-02T11:35:18.080Z,58.77
2022-11-02T11:37:20.940Z,58.80
2022-11-02T11:39:28.201Z,58.29
2022-11-02T11:41:33.454Z,57.89
2022-11-02T11:43:39.192Z,57.93
2022-11-02T11:45:59.301Z,58.17
2022-11-02T11:48:20.771Z,57.83
2022-11-02T11:50:26.116Z,58.70
2022-11-02T11:52:33.095Z,59.37
2022-11-02T11:54:36.454Z,59.24
2022-11-02T11:56:38.948Z,59.06
2022-11-02T11:58:52.150Z,59.14
2022-11-02T12:01:10.594Z,59.06
2022-11-02T12:03:16.789Z,59.15
2022-11-02T12:05:21.360Z,59.00
2022-11-02T12:07:32.995Z,58.36
2022-11-02T12:09:55.040Z,58.03
2022-11-02T12:12:07.905Z,57.59
2022-11-02T12:14:19.358Z,57.62
2022-11-02T12:16:38.783Z,57.98
2022-11-02T12:18:48.270Z,57.58
2022-11-02T12:21:00.320Z,57.74
2022-11-02T12:23:22.254Z,57.66
2022-11-02T12:25:33.612Z,57.91
2022-11-02T12:27:48.086Z,58.28
2022-11-02T12:29:50.722Z,57.94
2022-11-02T12:32:05.454Z,58.11
2022-11-02T12:34:23.167Z,57.93
2022-11-02T12:36:49.699Z,57.56
2022-11-02T12:39:09.304Z,57.50
2022-11-02T12:41:19.610Z,57.31
2022-11-02T12:43:34.251Z,56.98
2022-11-02T12:45:50.649Z,56.52
2022-11-02T12:48:00.635Z,56.66
2022-11-02T12:50:09.303Z,56.49
2022-11-02T12:52:24.186Z,56.02
2022-11-02T12:54:41.463Z,56.03
2022-11-02T12:56:51.606Z,55.30
2022-11-02T12:58:55.176Z,55.14
2022-11-02T13:01:12.365Z,54.15
2022-11-02T13:03:34.892Z,54.38
2022-11-02T13:05:44.166Z,53.89
2022-11-02T13:07:53.681Z,54.42
2022-11-02T13:10:04.400Z,54.06
2022-11-02T13:12:10.722Z,53.69
2022-11-02T13:14:17.203Z,53.94
2022-11-02T13:16:26.726Z,53.99
2022-11-02T13:18:38.569Z,54.23
2022-11-02T13:20:45.763Z,53.86
2022-11-02T13:22:56.096Z,54.25
2022-11-02T13:25:10.165Z,54.00
2022-11-02T13:27:37.227Z,53.68
2022-11-02T13:29:46.094Z,53.85
2022-11-02T13:32:01.993Z,53.51
2022-11-02T13:34:11.518Z,53.44
2022-11-02T13:36:14.994Z,53.38
2022-11-02T13:38:32.769Z,53.72
2022-11-02T13:40:43.663Z,54.51
2022-11-02T13:43:05.636Z,55.32
2022-11-02T13:45:21.337Z,56.02
2022-11-02T13:47:36.242Z,57.71
2022-11-02T13:49:43.019Z,58.99
2022-11-02T13:51:50.310Z,59.39
2022-11-02T13:53:59.469Z,59.37
2022-11-02T13:56:08.854Z,60.05
2022-11-02T13:58:25.334Z,60.02
2022-11-02T14:00:32.549Z,60.06
2022-11-02T14:02:42.802Z,60.13
2022-11-02T14:04:46.479Z,59.94
2022-11-02T14:07:00.717Z,59.81
2022-11-02T14:09:08.884Z,59.47
2022-11-02T14:11:11.637Z,59.07
2022-11-02T14:13:14.714Z,59.16
2022-11-02T14:15:17.646Z,59.56
2022-11-02T14:17:19.848Z,59.22
2022-11-02T14:19:26.194Z,58.98
2022-11-02T14:21:48.255Z,58.32
2022-11-02T14:23:53.702Z,58.65
2022-11-02T14:25:59.137Z,58.67
2022-11-02T14:28:22.226Z,58.62
2022-11-02T14:30:45.756Z,58.90
2022-11-02T14:33:01.595Z,58.54
2022-11-02T14:35:14.238Z,58.22
2022-11-02T14:37:26.410Z,57.81
2022-11-02T14:39:48.981Z,58.63
2022-11-02T14:42:05.607Z,58.29
2022-11-02T14:44:27.547Z,58.55
2022-11-02T14:46:43.200Z,58.30
2022-11-02T14:48:56.234Z,58.75
2022-11-02T14:51:03.467Z,59.22
2022-11-02T14:53:09.678Z,58.45
2022-11-02T14:55:24.241Z,58.58
2022-11-02T14:57:40.366Z,59.11
2022-11-02T14:59:50.218Z,59.14
2022-11-02T15:01:58.564Z,59.84
2022-11-02T15:04:08.166Z,59.48
2022-11-02T15:06:13.598Z,59.42
2022-11-02T15:08:16.723Z,59.57
2022-11-02T15:10:21.862Z,58.99
2022-11-02T15:12:33.281Z,59.06
2022-11-02T15:14:41.633Z,59.17
2022-11-02T15:16:44.777Z,58.86
2022-11-02T15:18:48.955Z,58.63
2022-11-02T15:21:11.814Z,58.13
2022-11-02T15:23:31.247Z,57.69
2022-11-02T15:25:38.738Z,56.99
2022-11-02T15:27:43.799Z,56.91
2022-11-02T15:29:48.412Z,57.10
2022-11-02T15:31:56.719Z,57.21
2022-11-02T15:34:04.074Z,56.72
2022-11-02T15:36:15.352Z,56.66
2022-11-02T15:38:24.151Z,56.64
2022-11-02T15:40:47.339Z,56.93
2022-11-02T15:43:06.224Z,56.98
2022-11-02T15:45:34.077Z,56.28
2022-11-02T15:48:01.471Z,56.20
2022-11-02T15:50:09.140Z,56.46
2022-11-02T15:52:21.070Z,56.36
2022-11-02T15:54:46.087Z,56.54
2022-11-02T15:57:04.834Z,56.27
2022-11-02T15:59:17.062Z,56.59
2022-11-02T16:01:26.039Z,56.87
2022-11-02T16:03:29.309Z,56.97
2022-11-02T16:05:44.474Z,56.78
2022-11-02T16:08:09.554Z,57.17
2022-11-02T16:10:30.248Z,57.07
2022-11-02T16:12:35.859Z,57.10
2022-11-02T16:14:38.897Z,57.80
2022-11-02T16:16:51.318Z,58.64
2022-11-02T16:18:56.592Z,58.83
2022-11-02T16:21:03.231Z,58.64
2022-11-02T16:23:09.068Z,59.18
2022-11-02T16:25:17.866Z,59.31
2022-11-02T16:27:23.424Z,59.50
2022-11-02T16:29:33.125Z,60.32
2022-11-02T16:31:36.061Z,60.22
2022-11-02T16:33:43.420Z,60.37
2022-11-02T16:35:47.008Z,60.42
2022-11-02T16:37:51.241Z,60.95
2022-11-02T16:39:54.981Z,60.59
2022-11-02T16:42:01.083Z,60.78
2022-11-02T16:44:11.509Z,61.02
2022-11-02T16:46:18.838Z,61.47
2022-11-02T16:48:27.544Z,61.59
2022-11-02T16:50:30.585Z,61.77
2022-11-02T16:52:37.364Z,61.15
2022-11-02T16:54:42.863Z,61.67
2022-11-02T16:56:51.088Z,61.25
2022-11-02T16:59:00.661Z,61.57
2022-11-02T17:01:06.389Z,61.79
2022-11-02T17:03:18.951Z,62.27
2022-11-02T17:05:24.956Z,62.17
2022-11-02T17:07:34.087Z,61.44
2022-11-02T17:09:38.046Z,61.59
2022-11-02T17:11:43.801Z,61.85
2022-11-02T17:13:53.498Z,61.74
2022-11-02T17:16:05.491Z,62.05
2022-11-02T17:18:13.113Z,61.44
2022-11-02T17:20:20.335Z,61.31
2022-11-02T17:22:28.040Z,61.45
2022-11-02T17:24:33.546Z,61.15
2022-11-02T17:26:40.233Z,62.07
2022-11-02T17:28:49.478Z,61.33
2022-11-02T17:30:55.169Z,61.13
2022-11-02T17:33:00.960Z,61.32
2022-11-02T17:35:05.797Z,61.13
2022-11-02T17:37:09.067Z,61.26
2022-11-02T17:39:17.553Z,61.09
2022-11-02T17:41:30.219Z,60.95
2022-11-02T17:43:35.769Z,61.54
2022-11-02T17:45:40.067Z,61.77
2022-11-02T17:47:43.287Z,61.50
2022-11-02T17:49:47.657Z,61.42
2022-11-02T17:51:54.209Z,61.13
2022-11-02T17:53:58.026Z,61.36
2022-11-02T17:56:03.809Z,61.23
2022-11-02T17:58:12.178Z,60.96
2022-11-02T18:00:23.919Z,61.27
2022-11-02T18:02:28.177Z,61.42
2022-11-02T18:04:31.452Z,61.85
2022-11-02T18:06:35.708Z,61.41
2022-11-02T18:08:58.665Z,61.39
2022-11-02T18:11:02.655Z,61.86
2022-11-02T18:13:06.975Z,61.63
2022-11-02T18:15:19.504Z,62.05
2022-11-02T18:17:23.110Z,62.47
2022-11-02T18:19:26.938Z,62.67
2022-11-02T18:21:30.088Z,63.08
2022-11-02T18:23:35.930Z,62.87
2022-11-02T18:25:40.379Z,63.48
2022-11-02T18:27:45.697Z,63.12
2022-11-02T18:29:48.968Z,62.84
2022-11-02T18:31:51.992Z,63.53
2022-11-02T18:33:57.556Z,64.94
2022-11-02T18:36:07.259Z,65.48
2022-11-02T18:38:10.655Z,66.53
2022-11-02T18:40:16.028Z,68.56
2022-11-02T18:42:18.733Z,69.62
2022-11-02T18:44:21.369Z,69.89
2022-11-02T18:46:26.682Z,71.14
2022-11-02T18:48:32.528Z,71.53
2022-11-02T18:50:36.668Z,72.20
2022-11-02T18:52:40.662Z,72.84
2022-11-02T18:54:44.084Z,73.30
2022-11-02T18:56:47.554Z,74.19
2022-11-02T18:58:55.292Z,74.58
2022-11-02T19:01:10.026Z,74.53
2022-11-02T19:03:16.829Z,74.71
2022-11-02T19:05:29.016Z,74.84
2022-11-02T19:07:41.282Z,74.79
2022-11-02T19:09:43.913Z,74.46
2022-11-02T19:12:07.527Z,74.43
2022-11-02T19:14:10.340Z,74.21
2022-11-02T19:16:13.319Z,74.26
2022-11-02T19:18:16.975Z,74.59
2022-11-02T19:20:19.769Z,74.58
2022-11-02T19:22:26.707Z,74.87
2022-11-02T19:24:29.768Z,75.48
2022-11-02T19:26:32.789Z,74.90
2022-11-02T19:28:35.382Z,75.59
2022-11-02T19:30:38.962Z,75.77
2022-11-02T19:32:41.605Z,75.94
2022-11-02T19:34:44.807Z,76.88
2022-11-02T19:36:47.373Z,77.06
2022-11-02T19:38:49.982Z,78.33
2022-11-02T19:41:12.195Z,78.20
2022-11-02T19:43:14.724Z,78.13
2022-11-02T19:45:18.595Z,78.56
2022-11-02T19:47:21.179Z,79.02
2022-11-02T19:49:23.591Z,79.59
2022-11-02T19:51:29.158Z,79.78
2022-11-02T19:53:32.024Z,80.58
2022-11-02T19:55:35.310Z,81.14
2022-11-02T19:57:38.193Z,81.03
2022-11-02T19:59:40.808Z,81.26
2022-11-02T20:01:43.983Z,80.77
2022-11-02T20:03:47.690Z,80.91
2022-11-02T20:05:50.494Z,80.32
2022-11-02T20:07:53.687Z,80.37
2022-11-02T20:09:58.763Z,79.49
2022-11-02T20:12:05.053Z,79.42
2022-11-02T20:14:08.016Z,79.51
2022-11-02T20:16:12.323Z,78.99
2022-11-02T20:18:19.538Z,79.43
2022-11-02T20:20:22.764Z,78.95
2022-11-02T20:22:26.548Z,79.17
2022-11-02T20:24:29.265Z,78.61
2022-11-02T20:26:35.067Z,79.09
2022-11-02T20:28:40.093Z,78.97
2022-11-02T20:30:43.876Z,78.73
2022-11-02T20:32:47.105Z,78.21
2022-11-02T20:34:51.264Z,77.78
2022-11-02T20:36:53.894Z,77.52
2022-11-02T20:38:56.816Z,77.57
2022-11-02T20:41:09.715Z,77.59
2022-11-02T20:43:13.602Z,77.55
2022-11-02T20:45:17.137Z,77.44
2022-11-02T20:47:19.961Z,76.96
2022-11-02T20:49:48.809Z,76.76
2022-11-02T20:51:46.525Z,76.46
2022-11-02T20:53:49.918Z,76.63
2022-11-02T20:55:52.711Z,76.41
2022-11-02T20:57:54.997Z,76.10
2022-11-02T20:59:57.562Z,75.96
2022-11-02T21:02:00.149Z,75.69
2022-11-02T21:04:02.872Z,75.63
2022-11-02T21:06:06.451Z,75.87
2022-11-02T21:08:08.885Z,75.68
2022-11-02T21:10:11.510Z,75.56
2022-11-02T21:12:25.084Z,75.59
2022-11-02T21:14:27.930Z,75.18
2022-11-02T21:16:30.381Z,74.94
2022-11-02T21:18:33.940Z,75.43
2022-11-02T21:20:36.621Z,75.45
2022-11-02T21:22:39.225Z,75.53
2022-11-02T21:24:41.825Z,75.20
2022-11-02T21:26:44.252Z,75.52
2022-11-02T21:28:47.016Z,75.52
2022-11-02T21:30:49.349Z,75.41
2022-11-02T21:32:53.093Z,75.13
2022-11-02T21:34:58.661Z,75.56
2022-11-02T21:37:03.517Z,76.66
2022-11-02T21:39:05.843Z,77.57
2022-11-02T21:41:09.582Z,77.88
2022-11-02T21:43:12.107Z,78.13
2022-11-02T21:45:17.959Z,78.07
2022-11-02T21:47:20.910Z,77.61
2022-11-02T21:49:25.393Z,77.18
2022-11-02T21:51:30.418Z,75.45
2022-11-02T21:53:34.600Z,74.51
2022-11-02T21:55:36.891Z,73.77
2022-11-02T21:57:40.671Z,73.87
2022-11-02T21:59:43.793Z,74.50
2022-11-02T22:01:48.690Z,74.35
2022-11-02T22:03:53.210Z,74.86
2022-11-02T22:05:55.547Z,75.30
2022-11-02T22:08:07.660Z,75.42
2022-11-02T22:10:10.034Z,75.65
2022-11-02T22:12:21.885Z,76.16
2022-11-02T22:14:24.164Z,76.65
2022-11-02T22:16:28.570Z,77.35
2022-11-02T22:18:31.311Z,78.54
2022-11-02T22:20:33.744Z,79.65
2022-11-02T22:22:36.027Z,80.21
2022-11-02T22:24:44.401Z,81.84
2022-11-02T22:26:47.191Z,81.98
2022-11-02T22:28:51.849Z,80.75
2022-11-02T22:30:55.619Z,81.03
2022-11-02T22:32:58.598Z,81.73
2022-11-02T22:35:01.065Z,81.51
2022-11-02T22:37:06.643Z,81.13
2022-11-02T22:39:12.887Z,81.04
2022-11-02T22:41:16.410Z,80.92
2022-11-02T22:43:18.927Z,80.76
2022-11-02T22:45:21.237Z,81.09
2022-11-02T22:47:23.447Z,80.26
2022-11-02T22:49:26.271Z,79.94
2022-11-02T22:51:31.377Z,80.58
2022-11-02T22:53:33.799Z,80.91
2022-11-02T22:55:35.867Z,81.03
2022-11-02T22:57:38.061Z,81.55
2022-11-02T22:59:40.502Z,81.52
2022-11-02T23:01:42.773Z,81.12
2022-11-02T23:03:45.938Z,80.97
2022-11-02T23:05:48.522Z,81.16
2022-11-02T23:07:51.087Z,81.38
2022-11-02T23:09:53.297Z,81.44
2022-11-02T23:11:55.832Z,81.32
2022-11-02T23:14:00.646Z,81.72
2022-11-02T23:16:09.395Z,81.83
2022-11-02T23:18:13.676Z,82.50
2022-11-02T23:20:15.933Z,82.78
2022-11-02T23:22:21.443Z,82.60
2022-11-02T23:24:27.902Z,82.18
2022-11-02T23:26:30.060Z,82.03
2022-11-02T23:28:35.144Z,81.64
2022-11-02T23:30:41.125Z,81.67
2022-11-02T23:32:43.324Z,79.80
2022-11-02T23:35:05.215Z,79.89
2022-11-02T23:37:07.293Z,79.38
2022-11-02T23:39:12.363Z,79.22
2022-11-02T23:41:14.384Z,78.24
2022-11-02T23:43:16.447Z,77.87
2022-11-02T23:45:18.475Z,77.70
2022-11-02T23:47:40.253Z,77.06
2022-11-02T23:49:42.442Z,76.99
2022-11-02T23:51:47.699Z,77.62
2022-11-02T23:53:52.733Z,77.75
2022-11-02T23:55:58.661Z,77.85
2022-11-02T23:58:00.684Z,78.35
